Andrew, Illinois
Current Conditions -  °F | °C
As of 7:52 AM on Thursday 30 Oct 2014 (Local Time) from KSPI Reporting Station
Few Clouds Few Clouds  
Wind Chill: 33°   Ceiling: Unl
Heat Index: 38°   Visibility: 10mi
Dew Point: 34°   Wind: 7mph
Humidity: 86%   Direction: 180°S
Pressure: 30.15"   Gusts: NA
Location:  39.854°N, 89.6295°W
Report Text: KSPI 301252Z 18006KT 10SM FEW085 03/01 A3015 RMK AO2 SLP213 T00330011
Loading
Personal Weather Stations






























Interactive Weather Map
Tropical Storm Tracking
New forecast layout! Learn more

10-Day Weather Forecast

Advertisements
Track Severe Weather on mobile